Time;durP1;ratioP1;P1;durP2;ratioP2;P2;SDS_P1;SDS_P2;PMS_P1;PMS_P2;Temp;Humidity;BMP_temperature;BMP_pressure;BME280_temperature;BME280_humidity;BME280_pressure;Samples;Min_cycle;Max_cycle;Signal;HPM_P1;HPM_P2
2023/08/31 00:04:40;;;;;;;14.50;12.70;;;;;;;14.27;94.60;98065.20;225881;1277;22627;-75
2023/08/31 00:09:42;;;;;;;14.10;12.50;;;;;;;14.26;94.49;98068.52;225813;1273;22606;-75
2023/08/31 00:14:44;;;;;;;14.40;12.60;;;;;;;14.25;94.36;98062.16;225743;1266;22582;-76
2023/08/31 00:19:46;;;;;;;13.80;12.20;;;;;;;14.23;94.55;98062.09;225833;1279;22670;-75
2023/08/31 00:24:48;;;;;;;14.70;12.90;;;;;;;14.22;94.38;98064.88;225823;1280;22546;-75
2023/08/31 00:29:50;;;;;;;13.90;12.50;;;;;;;14.22;94.68;98071.41;225857;1277;22574;-74
2023/08/31 00:34:52;;;;;;;16.00;13.30;;;;;;;14.23;94.61;98073.73;225833;1277;22542;-79
2023/08/31 00:39:54;;;;;;;15.70;13.40;;;;;;;14.25;94.55;98081.69;225794;1279;22564;-75
2023/08/31 00:44:57;;;;;;;15.10;13.20;;;;;;;14.29;94.81;98078.38;225853;1273;22564;-74
2023/08/31 00:49:59;;;;;;;19.30;13.50;;;;;;;14.30;94.63;98071.02;225851;1269;22544;-75
2023/08/31 00:55:06;;;;;;;17.80;13.30;;;;;;;14.31;94.76;98063.54;225840;1273;25384;-77
2023/08/31 01:00:09;;;;;;;15.90;12.50;;;;;;;14.30;94.38;98065.48;225853;1274;22546;-75
2023/08/31 01:05:26;;;;;;;13.60;12.20;;;;;;;14.28;94.55;98063.58;225871;1276;22556;-76
2023/08/31 01:10:47;;;;;;;17.70;13.90;;;;;;;14.26;94.43;98062.95;225821;1275;23450;-76
2023/08/31 01:15:53;;;;;;;17.80;13.40;;;;;;;14.27;94.63;98056.12;225757;1275;22564;-76
2023/08/31 01:21:27;;;;;;;16.10;12.90;;;;;;;14.27;94.50;98054.57;225817;1273;22547;-74
2023/08/31 01:26:30;;;;;;;14.50;11.30;;;;;;;14.25;94.55;98061.91;225810;1279;22551;-74
2023/08/31 01:31:32;;;;;;;14.30;11.50;;;;;;;14.22;94.28;98065.26;225838;1276;23814;-74
2023/08/31 01:36:38;;;;;;;16.30;11.80;;;;;;;14.19;94.34;98067.20;225503;1280;414612;-75
2023/08/31 01:41:46;;;;;;;15.60;11.70;;;;;;;14.17;94.52;98065.77;225856;1276;24297;-74
2023/08/31 01:46:53;;;;;;;13.80;12.00;;;;;;;14.17;94.60;98058.16;225754;1278;22558;-76
2023/08/31 01:51:57;;;;;;;13.90;11.70;;;;;;;14.16;94.33;98058.35;225862;1277;22550;-75
2023/08/31 01:56:59;;;;;;;14.20;10.80;;;;;;;14.15;94.41;98063.63;225822;1276;24241;-74
2023/08/31 02:02:02;;;;;;;11.70;10.50;;;;;;;14.13;94.49;98068.96;225817;1276;22643;-75
2023/08/31 02:07:04;;;;;;;13.60;10.90;;;;;;;14.13;94.53;98072.16;225824;1277;22566;-75
2023/08/31 02:12:06;;;;;;;11.70;10.50;;;;;;;14.11;94.32;98077.89;225857;1275;22570;-75
2023/08/31 02:17:08;;;;;;;11.40;10.20;;;;;;;14.08;94.55;98086.98;225747;1276;22612;-75
2023/08/31 02:22:09;;;;;;;12.60;10.90;;;;;;;14.05;94.61;98084.66;225818;1277;22664;-74
2023/08/31 02:27:11;;;;;;;12.40;10.60;;;;;;;14.06;94.47;98080.73;225801;1279;22624;-76
2023/08/31 02:32:13;;;;;;;12.80;11.10;;;;;;;14.05;94.63;98084.77;225834;1278;22589;-74
2023/08/31 02:37:15;;;;;;;11.00;9.70;;;;;;;14.05;94.78;98086.30;225852;1276;22545;-74
2023/08/31 02:42:18;;;;;;;13.00;10.00;;;;;;;14.05;94.59;98083.05;225867;1277;22568;-76
2023/08/31 02:47:20;;;;;;;12.00;10.70;;;;;;;14.04;94.49;98081.10;225835;1277;22657;-76
2023/08/31 02:52:23;;;;;;;12.10;10.70;;;;;;;14.01;94.56;98079.81;225813;1277;22635;-75
2023/08/31 02:57:24;;;;;;;11.40;10.10;;;;;;;14.01;94.70;98081.87;225849;1277;22591;-75
2023/08/31 03:02:26;;;;;;;12.10;10.70;;;;;;;14.00;94.95;98074.64;225818;1276;25342;-76
2023/08/31 03:07:28;;;;;;;11.60;10.30;;;;;;;13.99;94.75;98079.06;225807;1279;22552;-75
2023/08/31 03:12:30;;;;;;;11.70;10.50;;;;;;;13.99;95.23;98087.20;225925;1275;24187;-76
2023/08/31 03:17:34;;;;;;;14.90;12.60;;;;;;;14.01;95.11;98084.96;225903;1277;22558;-74
2023/08/31 03:22:36;;;;;;;13.70;11.70;;;;;;;14.02;94.97;98087.20;225828;1274;22527;-75
2023/08/31 03:27:38;;;;;;;13.10;10.90;;;;;;;14.01;94.99;98091.87;225852;1277;22547;-77
2023/08/31 03:32:40;;;;;;;14.50;10.80;;;;;;;13.99;95.04;98095.17;225782;1278;25369;-75
2023/08/31 03:37:41;;;;;;;14.40;11.40;;;;;;;13.99;95.12;98096.44;225717;1278;22538;-75
2023/08/31 03:42:43;;;;;;;12.40;10.50;;;;;;;13.99;95.16;98098.23;225829;1278;25269;-75
2023/08/31 03:47:46;;;;;;;14.40;11.60;;;;;;;13.98;95.11;98106.86;225881;1277;22560;-75
2023/08/31 03:52:48;;;;;;;15.10;11.70;;;;;;;13.98;95.22;98111.85;225866;1280;22576;-74
2023/08/31 03:57:50;;;;;;;14.90;12.50;;;;;;;13.99;95.29;98116.98;225857;1280;22529;-75
2023/08/31 04:02:55;;;;;;;13.80;10.80;;;;;;;14.01;95.37;98112.95;225842;1278;22536;-75
2023/08/31 04:07:58;;;;;;;12.00;10.70;;;;;;;14.03;95.32;98117.96;225797;1279;22700;-75
2023/08/31 04:13:00;;;;;;;14.10;11.50;;;;;;;14.06;95.48;98122.50;225855;1276;22561;-76
2023/08/31 04:18:03;;;;;;;12.30;11.00;;;;;;;14.09;95.50;98118.97;225819;1276;22543;-74
2023/08/31 04:23:05;;;;;;;13.50;11.60;;;;;;;14.15;95.35;98116.92;225849;1276;22549;-75
2023/08/31 04:28:07;;;;;;;13.40;11.90;;;;;;;14.19;95.42;98120.92;225801;1270;22576;-74
2023/08/31 04:33:09;;;;;;;15.40;12.80;;;;;;;14.23;95.52;98120.95;225815;1276;22669;-74
2023/08/31 04:38:11;;;;;;;15.30;12.10;;;;;;;14.26;95.29;98121.61;225726;1278;26018;-75
2023/08/31 04:43:13;;;;;;;14.30;12.00;;;;;;;14.29;95.29;98126.73;225779;1275;22541;-75
2023/08/31 04:48:15;;;;;;;18.30;13.60;;;;;;;14.32;95.45;98131.14;225876;1276;22617;-75
2023/08/31 04:53:17;;;;;;;15.30;12.50;;;;;;;14.38;95.46;98126.93;225918;1273;22545;-75
2023/08/31 04:58:19;;;;;;;16.30;12.70;;;;;;;14.45;95.18;98126.31;225885;1273;22571;-75
2023/08/31 05:03:21;;;;;;;14.30;11.90;;;;;;;14.51;95.24;98131.05;225787;1278;22614;-75
2023/08/31 05:08:23;;;;;;;12.80;11.40;;;;;;;14.55;95.07;98143.41;225848;1276;22544;-76
2023/08/31 05:13:25;;;;;;;12.80;11.40;;;;;;;14.58;94.90;98148.02;225902;1280;22544;-75
2023/08/31 05:18:27;;;;;;;12.80;9.80;;;;;;;14.62;94.86;98147.73;225792;1278;22551;-74
2023/08/31 05:23:29;;;;;;;11.30;10.10;;;;;;;14.65;94.96;98146.82;225828;1278;22569;-76
2023/08/31 05:28:31;;;;;;;11.40;8.90;;;;;;;14.68;94.68;98155.45;225897;1277;22590;-75
2023/08/31 05:33:33;;;;;;;11.40;9.00;;;;;;;14.70;94.36;98155.42;225922;1276;22562;-76
2023/08/31 05:38:36;;;;;;;8.30;7.00;;;;;;;14.73;94.66;98162.78;225796;1276;22563;-76
2023/08/31 05:43:41;;;;;;;7.90;6.90;;;;;;;14.76;94.28;98164.18;225912;1276;22550;-75
2023/08/31 05:48:42;;;;;;;7.30;6.30;;;;;;;14.80;94.33;98166.25;225601;1257;22536;-74
2023/08/31 05:53:45;;;;;;;8.60;7.60;;;;;;;14.89;94.20;98167.04;225485;1258;22543;-75
2023/08/31 05:58:47;;;;;;;8.80;8.00;;;;;;;14.96;94.16;98171.73;225493;1277;22555;-75
2023/08/31 06:03:49;;;;;;;10.10;9.00;;;;;;;15.07;93.78;98179.82;225420;1259;24232;-75
2023/08/31 06:08:51;;;;;;;12.30;10.70;;;;;;;15.15;93.63;98181.98;225296;1262;22573;-75
2023/08/31 06:13:53;;;;;;;11.80;10.40;;;;;;;15.25;93.67;98182.66;225319;1257;22593;-76
2023/08/31 06:18:54;;;;;;;13.00;10.80;;;;;;;15.34;93.54;98181.20;225359;1276;22555;-75
2023/08/31 06:23:56;;;;;;;16.30;11.80;;;;;;;15.45;93.43;98182.03;225450;1258;22579;-75
2023/08/31 06:28:58;;;;;;;12.10;10.90;;;;;;;15.58;93.31;98179.56;225153;1259;22541;-75
2023/08/31 06:34:00;;;;;;;13.20;11.20;;;;;;;15.74;93.37;98183.91;225197;1266;22643;-76
2023/08/31 06:39:04;;;;;;;13.30;10.70;;;;;;;15.98;93.41;98193.64;225238;1262;22534;-75
2023/08/31 06:44:06;;;;;;;11.90;10.70;;;;;;;16.27;93.02;98198.10;225501;1273;22585;-75
2023/08/31 06:49:09;;;;;;;10.30;8.00;;;;;;;16.53;92.45;98202.13;225437;1266;22624;-75
2023/08/31 06:54:11;;;;;;;8.60;6.80;;;;;;;16.73;91.77;98200.57;225274;1274;26267;-74
2023/08/31 06:59:13;;;;;;;6.50;5.60;;;;;;;16.87;91.33;98202.89;225256;1268;23334;-75
2023/08/31 07:04:15;;;;;;;6.60;5.20;;;;;;;16.98;90.60;98209.57;225506;1275;22543;-76
2023/08/31 07:09:17;;;;;;;7.30;5.10;;;;;;;17.11;90.65;98214.42;225509;1269;22638;-76
2023/08/31 07:14:19;;;;;;;5.10;4.60;;;;;;;17.33;90.50;98218.65;225286;1257;22551;-75
2023/08/31 07:19:21;;;;;;;5.80;3.70;;;;;;;17.54;90.46;98222.64;225445;1280;23000;-75
2023/08/31 07:24:24;;;;;;;5.90;3.80;;;;;;;17.69;89.27;98229.00;225449;1262;22537;-76
2023/08/31 07:29:26;;;;;;;4.70;3.70;;;;;;;17.84;89.29;98227.38;225304;1259;22559;-76
2023/08/31 07:34:28;;;;;;;3.70;3.40;;;;;;;18.12;88.95;98225.52;225499;1262;22661;-76
2023/08/31 07:39:31;;;;;;;3.70;2.40;;;;;;;18.30;88.26;98230.55;225473;1262;22548;-75
2023/08/31 07:44:32;;;;;;;4.20;3.10;;;;;;;18.50;88.05;98225.25;225478;1259;22569;-74
2023/08/31 07:49:34;;;;;;;3.10;2.60;;;;;;;18.57;86.83;98225.14;225400;1265;22641;-75
2023/08/31 07:54:36;;;;;;;3.40;3.00;;;;;;;18.48;85.93;98228.48;225191;1258;22544;-75
2023/08/31 07:59:40;;;;;;;3.80;3.00;;;;;;;18.41;85.92;98239.73;225367;1259;22559;-76
2023/08/31 08:04:42;;;;;;;5.70;3.30;;;;;;;18.41;85.86;98240.77;225384;1276;22559;-75
2023/08/31 08:09:44;;;;;;;4.40;3.40;;;;;;;18.47;85.75;98243.66;225292;1278;22541;-76
2023/08/31 08:14:46;;;;;;;4.10;3.60;;;;;;;18.62;85.74;98250.23;225466;1274;25342;-77
2023/08/31 08:19:48;;;;;;;5.10;4.00;;;;;;;18.78;85.31;98251.27;225381;1280;22908;-74
2023/08/31 08:24:50;;;;;;;4.70;4.20;;;;;;;18.89;84.58;98251.48;225508;1277;22586;-74
2023/08/31 08:29:52;;;;;;;5.50;4.30;;;;;;;18.87;84.01;98252.27;225394;1259;22547;-76
2023/08/31 08:34:54;;;;;;;4.90;4.30;;;;;;;18.86;83.95;98261.16;225333;1280;25339;-75
2023/08/31 08:39:56;;;;;;;5.90;4.80;;;;;;;18.90;84.22;98260.39;225590;1274;22556;-73
2023/08/31 08:44:58;;;;;;;5.10;4.60;;;;;;;19.03;83.72;98267.52;225574;1277;22547;-74
2023/08/31 08:50:01;;;;;;;4.00;3.60;;;;;;;19.07;83.10;98274.41;225465;1278;25249;-71
2023/08/31 08:55:04;;;;;;;9.10;4.60;;;;;;;19.17;83.12;98266.41;225302;1257;25377;-73
2023/08/31 09:00:07;;;;;;;5.80;3.70;;;;;;;19.25;81.88;98275.05;225481;1277;22564;-73
2023/08/31 09:05:09;;;;;;;4.50;4.10;;;;;;;19.18;81.32;98270.96;225411;1270;25433;-74
2023/08/31 09:10:12;;;;;;;8.00;4.70;;;;;;;19.22;82.17;98262.11;225448;1265;22646;-74
2023/08/31 09:15:14;;;;;;;11.60;5.50;;;;;;;19.40;82.30;98271.45;225502;1275;22553;-76
2023/08/31 09:20:16;;;;;;;6.20;4.90;;;;;;;19.49;81.02;98282.79;225363;1273;24420;-76
2023/08/31 09:25:19;;;;;;;28.80;6.50;;;;;;;19.45;80.91;98279.94;225222;1278;22642;-77
2023/08/31 09:30:22;;;;;;;26.90;7.00;;;;;;;19.50;81.19;98278.17;225425;1265;22902;-74
2023/08/31 09:35:25;;;;;;;19.90;7.80;;;;;;;19.75;82.13;98281.52;225602;1278;22549;-76
2023/08/31 09:40:29;;;;;;;10.70;5.30;;;;;;;20.03;81.96;98287.09;225634;1277;22544;-77
2023/08/31 09:45:34;;;;;;;9.50;5.40;;;;;;;20.22;80.96;98292.70;225570;1278;22543;-77
2023/08/31 09:50:39;;;;;;;8.00;5.10;;;;;;;20.25;79.64;98291.85;225650;1278;25252;-78
2023/08/31 09:55:43;;;;;;;10.10;5.40;;;;;;;20.23;79.27;98294.36;225621;1276;22536;-76
2023/08/31 10:00:46;;;;;;;9.60;5.20;;;;;;;20.18;78.45;98295.58;225523;1269;22524;-75
2023/08/31 10:05:49;;;;;;;5.70;4.70;;;;;;;20.33;78.93;98298.98;225555;1275;22548;-77
2023/08/31 10:10:53;;;;;;;8.70;5.30;;;;;;;20.66;78.91;98299.54;225520;1269;23031;-79
2023/08/31 10:15:55;;;;;;;4.50;4.20;;;;;;;20.96;78.31;98295.13;225450;1280;22956;-76
2023/08/31 10:20:57;;;;;;;6.80;4.80;;;;;;;21.18;77.03;98297.79;225417;1277;22607;-77
2023/08/31 10:26:00;;;;;;;6.50;4.40;;;;;;;21.46;76.83;98294.91;225162;1261;22578;-78
2023/08/31 10:31:06;;;;;;;6.30;4.70;;;;;;;21.68;76.14;98294.01;225617;1265;22530;-76
2023/08/31 10:36:17;;;;;;;9.50;5.70;;;;;;;21.73;75.08;98295.18;225434;1280;22631;-76
2023/08/31 10:41:20;;;;;;;10.30;7.00;;;;;;;21.67;73.80;98302.99;225192;1259;22537;-77
2023/08/31 10:46:35;;;;;;;4.70;3.90;;;;;;;21.59;74.17;98300.68;225389;1278;22536;-76
2023/08/31 10:51:43;;;;;;;7.60;6.40;;;;;;;21.83;74.24;98296.77;225582;1258;22544;-77
2023/08/31 10:56:57;;;;;;;4.90;4.50;;;;;;;21.92;73.53;98290.58;225414;1280;24283;-76
2023/08/31 11:02:04;;;;;;;4.80;4.40;;;;;;;21.93;72.79;98291.38;225572;1278;22569;-77
2023/08/31 11:07:17;;;;;;;4.50;3.80;;;;;;;22.04;72.10;98285.02;225602;1265;22548;-78
2023/08/31 11:12:22;;;;;;;3.60;3.30;;;;;;;22.20;71.81;98283.73;225423;1278;22539;-78
2023/08/31 11:17:24;;;;;;;4.10;3.50;;;;;;;22.33;71.08;98273.60;225584;1280;23263;-78
2023/08/31 11:22:30;;;;;;;8.60;3.70;;;;;;;22.60;69.39;98277.77;225381;1280;22965;-74
2023/08/31 11:27:31;;;;;;;3.30;3.10;;;;;;;22.63;68.38;98280.17;225433;1273;22549;-74
2023/08/31 11:32:33;;;;;;;3.30;3.10;;;;;;;22.76;68.32;98273.91;225481;1277;25409;-74
2023/08/31 11:37:36;;;;;;;3.50;3.20;;;;;;;22.90;67.63;98272.65;225291;1266;22502;-75
2023/08/31 11:42:39;;;;;;;3.20;2.80;;;;;;;22.86;67.12;98269.17;225551;1272;22554;-75
2023/08/31 11:47:44;;;;;;;3.20;2.80;;;;;;;22.81;67.01;98275.58;225503;1261;22602;-75
2023/08/31 11:52:46;;;;;;;2.90;2.70;;;;;;;22.80;66.71;98278.98;225489;1264;22540;-74
2023/08/31 11:57:52;;;;;;;2.80;2.60;;;;;;;22.78;65.67;98281.24;225480;1279;22554;-74
2023/08/31 12:02:58;;;;;;;4.90;2.80;;;;;;;22.79;65.19;98294.64;225541;1271;22541;-73
2023/08/31 12:08:02;;;;;;;3.20;2.10;;;;;;;22.32;62.30;98323.12;225514;1269;22587;-77
2023/08/31 12:13:12;;;;;;;3.10;2.60;;;;;;;21.35;63.27;98325.70;225230;1278;22551;-77
2023/08/31 12:18:15;;;;;;;4.00;2.70;;;;;;;20.63;65.07;98343.77;225211;1277;22548;-78
2023/08/31 12:23:21;;;;;;;2.80;2.60;;;;;;;20.13;66.78;98356.40;225604;1278;22636;-78
2023/08/31 12:28:23;;;;;;;3.40;2.70;;;;;;;19.76;68.27;98353.52;225664;1278;22551;-77
2023/08/31 12:33:25;;;;;;;4.00;2.80;;;;;;;19.50;69.40;98356.81;225382;1275;22548;-77
2023/08/31 12:38:27;;;;;;;3.50;3.20;;;;;;;19.21;70.83;98362.06;225455;1278;24720;-78
2023/08/31 12:43:29;;;;;;;5.10;4.40;;;;;;;18.81;72.48;98373.38;225592;1280;22548;-76
2023/08/31 12:48:34;;;;;;;4.40;4.00;;;;;;;18.31;74.42;98376.16;225619;1273;25141;-78
2023/08/31 12:53:42;;;;;;;5.60;4.60;;;;;;;17.95;75.78;98375.40;225535;1266;22664;-79
2023/08/31 12:58:43;;;;;;;4.60;4.20;;;;;;;17.78;76.83;98373.76;225469;1262;24211;-77
2023/08/31 13:03:47;;;;;;;7.00;4.00;;;;;;;17.83;77.24;98376.33;225205;1265;22573;-76
2023/08/31 13:08:50;;;;;;;4.50;4.10;;;;;;;17.77;77.36;98379.78;225453;1271;25226;-77
2023/08/31 13:13:52;;;;;;;5.10;4.60;;;;;;;17.83;78.07;98381.60;225429;1279;22549;-76
2023/08/31 13:18:54;;;;;;;3.50;3.20;;;;;;;18.03;78.12;98385.30;225354;1280;22849;-76
2023/08/31 13:23:56;;;;;;;4.90;4.50;;;;;;;18.14;78.22;98387.32;225494;1278;22523;-76
2023/08/31 13:28:58;;;;;;;4.00;3.30;;;;;;;18.21;78.33;98385.13;225228;1260;22547;-76
2023/08/31 13:33:59;;;;;;;4.60;4.20;;;;;;;18.24;78.11;98388.66;225235;1271;22944;-77
2023/08/31 13:39:03;;;;;;;4.00;3.70;;;;;;;18.37;79.02;98401.55;225196;1275;22558;-77
2023/08/31 13:44:05;;;;;;;3.20;3.00;;;;;;;18.49;78.88;98401.77;225262;1257;23433;-77
2023/08/31 13:49:07;;;;;;;3.00;2.80;;;;;;;18.65;78.73;98401.17;225396;1262;22547;-77
2023/08/31 13:54:09;;;;;;;3.40;3.00;;;;;;;18.80;78.25;98401.09;225373;1262;22577;-76
2023/08/31 13:59:11;;;;;;;3.80;3.30;;;;;;;19.00;77.81;98401.23;225305;1278;24258;-76
2023/08/31 14:04:12;;;;;;;3.60;3.30;;;;;;;19.44;78.21;98394.70;225177;1277;26191;-77
2023/08/31 14:09:15;;;;;;;3.10;2.00;;;;;;;19.88;77.91;98392.83;225167;1275;22554;-79
2023/08/31 14:14:17;;;;;;;2.50;2.00;;;;;;;19.92;76.24;98391.07;225328;1277;22764;-76
2023/08/31 14:19:19;;;;;;;2.60;2.20;;;;;;;19.93;75.49;98390.27;225579;1277;22538;-77
2023/08/31 14:24:21;;;;;;;2.60;2.40;;;;;;;19.89;75.42;98390.73;225763;1277;25217;-77
2023/08/31 14:29:24;;;;;;;2.90;1.90;;;;;;;19.84;74.78;98389.80;225932;1280;22545;-77
2023/08/31 14:34:25;;;;;;;2.60;1.80;;;;;;;19.83;75.11;98391.23;225848;1278;22568;-77
2023/08/31 14:39:30;;;;;;;1.80;1.70;;;;;;;19.93;74.61;98391.45;225804;1280;22582;-77
2023/08/31 14:44:32;;;;;;;1.60;1.50;;;;;;;19.89;73.71;98394.21;225884;1269;22650;-77
2023/08/31 14:49:34;;;;;;;2.00;1.90;;;;;;;19.85;73.29;98399.14;225820;1280;22564;-77
2023/08/31 14:54:35;;;;;;;2.10;1.90;;;;;;;19.90;73.80;98401.35;225798;1280;22543;-77
2023/08/31 14:59:37;;;;;;;2.10;2.00;;;;;;;20.02;73.49;98397.36;225896;1278;22638;-77
2023/08/31 15:04:39;;;;;;;2.00;1.90;;;;;;;20.13;73.06;98405.86;225855;1278;22556;-77
2023/08/31 15:09:42;;;;;;;2.20;2.00;;;;;;;20.23;73.57;98409.14;225938;1280;22558;-77
2023/08/31 15:14:44;;;;;;;2.00;1.90;;;;;;;20.30;73.13;98414.08;225775;1278;22562;-77
2023/08/31 15:19:46;;;;;;;2.00;1.90;;;;;;;20.34;72.86;98411.45;225776;1279;22586;-76
2023/08/31 15:24:51;;;;;;;1.90;1.80;;;;;;;20.33;72.48;98420.31;225907;1278;24345;-77
2023/08/31 15:29:53;;;;;;;2.20;1.70;;;;;;;20.34;72.25;98422.77;225925;1279;22646;-77
2023/08/31 15:34:55;;;;;;;2.10;1.80;;;;;;;20.30;71.77;98424.06;225776;1278;22566;-76
2023/08/31 15:39:57;;;;;;;2.30;1.90;;;;;;;20.24;71.68;98428.36;225942;1280;22671;-77
2023/08/31 15:44:59;;;;;;;1.90;1.70;;;;;;;20.10;71.66;98435.30;225796;1278;22567;-77
2023/08/31 15:50:01;;;;;;;2.20;2.10;;;;;;;20.01;72.12;98439.31;225780;1279;24443;-76
2023/08/31 15:55:05;;;;;;;2.30;2.20;;;;;;;20.06;72.56;98443.90;225930;1278;26862;-76
2023/08/31 16:00:11;;;;;;;2.50;2.30;;;;;;;20.16;72.63;98451.27;225932;1280;22609;-77
2023/08/31 16:05:13;;;;;;;2.50;2.30;;;;;;;20.24;72.48;98451.20;225892;1278;22538;-77
2023/08/31 16:10:15;;;;;;;3.30;2.00;;;;;;;20.34;72.75;98452.85;225772;1278;22640;-77
2023/08/31 16:15:16;;;;;;;4.90;2.20;;;;;;;20.35;72.31;98458.23;225931;1280;22613;-77
2023/08/31 16:20:19;;;;;;;2.80;2.60;;;;;;;20.22;72.50;98456.67;225985;1278;22559;-76
2023/08/31 16:25:21;;;;;;;2.70;2.20;;;;;;;20.04;72.60;98451.61;225932;1279;22560;-76
2023/08/31 16:30:23;;;;;;;2.60;2.30;;;;;;;19.90;72.93;98452.52;225822;1279;22591;-77
2023/08/31 16:35:25;;;;;;;3.60;3.00;;;;;;;19.78;73.22;98454.25;225901;1278;22551;-76
2023/08/31 16:40:27;;;;;;;3.40;2.80;;;;;;;19.65;73.46;98458.09;225895;1279;22569;-77
2023/08/31 16:45:29;;;;;;;2.70;2.50;;;;;;;19.51;73.68;98463.79;225904;1278;22540;-77
2023/08/31 16:50:32;;;;;;;2.50;2.40;;;;;;;19.37;73.58;98465.73;225788;1280;22845;-77
2023/08/31 16:55:41;;;;;;;2.90;2.70;;;;;;;19.24;73.98;98469.08;225953;1279;22555;-76
2023/08/31 17:00:43;;;;;;;4.20;3.00;;;;;;;19.10;74.36;98470.58;225912;1278;22551;-76
2023/08/31 17:05:51;;;;;;;4.20;3.90;;;;;;;18.93;74.59;98474.60;225902;1280;24934;-76
2023/08/31 17:10:53;;;;;;;7.20;5.90;;;;;;;18.74;75.12;98475.59;225842;1276;24211;-76
2023/08/31 17:15:55;;;;;;;6.10;5.50;;;;;;;18.54;75.37;98483.02;225937;1279;22540;-76
2023/08/31 17:20:57;;;;;;;4.60;4.20;;;;;;;18.35;75.63;98486.10;225840;1279;22544;-76
2023/08/31 17:25:58;;;;;;;4.50;4.10;;;;;;;18.16;76.03;98492.02;225915;1278;23280;-76
2023/08/31 17:31:00;;;;;;;4.20;3.20;;;;;;;17.99;76.50;98499.39;225945;1279;22554;-76
2023/08/31 17:36:02;;;;;;;4.50;4.10;;;;;;;17.82;76.59;98505.64;225848;1280;22578;-76
2023/08/31 17:41:04;;;;;;;5.90;4.60;;;;;;;17.65;77.15;98501.70;225934;1281;22568;-76
2023/08/31 17:46:06;;;;;;;4.70;4.20;;;;;;;17.45;77.38;98507.67;225857;1281;22555;-75
2023/08/31 17:51:08;;;;;;;7.50;4.70;;;;;;;17.21;77.68;98514.04;225834;1278;22547;-75
2023/08/31 17:56:14;;;;;;;8.10;5.00;;;;;;;17.02;78.25;98521.39;225845;1279;25326;-76
2023/08/31 18:01:16;;;;;;;6.50;5.30;;;;;;;16.84;78.87;98525.92;225851;1276;22662;-75
2023/08/31 18:06:17;;;;;;;6.40;5.20;;;;;;;16.66;79.49;98532.52;225936;1279;22744;-76
2023/08/31 18:11:19;;;;;;;5.60;4.70;;;;;;;16.48;79.96;98539.66;225811;1277;22588;-76
2023/08/31 18:16:21;;;;;;;5.80;5.10;;;;;;;16.31;80.10;98551.04;225785;1281;23707;-75
2023/08/31 18:21:23;;;;;;;6.50;5.20;;;;;;;16.14;80.43;98558.41;225887;1276;22887;-76
2023/08/31 18:26:25;;;;;;;6.10;5.50;;;;;;;15.98;80.85;98562.39;225839;1280;25396;-76
2023/08/31 18:31:27;;;;;;;6.80;5.80;;;;;;;15.82;80.81;98564.27;225853;1281;22545;-76
2023/08/31 18:36:29;;;;;;;6.80;6.20;;;;;;;15.67;81.10;98566.23;225811;1277;22543;-76
2023/08/31 18:41:31;;;;;;;7.30;6.60;;;;;;;15.53;81.47;98567.76;225862;1276;22560;-76
2023/08/31 18:46:33;;;;;;;7.40;6.50;;;;;;;15.41;81.64;98569.36;225835;1277;22537;-76
2023/08/31 18:51:39;;;;;;;10.00;6.70;;;;;;;15.29;81.81;98576.56;225822;1278;22542;-76
2023/08/31 18:56:42;;;;;;;8.80;6.40;;;;;;;15.15;82.18;98578.85;225827;1277;22558;-75
2023/08/31 19:01:44;;;;;;;8.10;7.20;;;;;;;15.03;82.20;98584.35;225840;1281;22654;-77
2023/08/31 19:06:48;;;;;;;7.30;6.70;;;;;;;14.91;82.50;98585.09;225795;1280;23768;-76
2023/08/31 19:11:51;;;;;;;7.50;6.80;;;;;;;14.78;82.44;98584.66;225800;1274;22601;-76
2023/08/31 19:16:53;;;;;;;8.60;7.80;;;;;;;14.67;82.77;98589.05;225840;1279;22574;-76
2023/08/31 19:21:55;;;;;;;9.10;8.00;;;;;;;14.56;83.21;98591.27;225766;1281;22554;-76
2023/08/31 19:27:00;;;;;;;9.40;8.40;;;;;;;14.47;83.30;98594.21;225780;1281;22564;-77
2023/08/31 19:32:03;;;;;;;7.80;7.00;;;;;;;14.38;83.54;98599.17;225808;1280;22547;-75
2023/08/31 19:37:05;;;;;;;7.20;6.50;;;;;;;14.30;83.82;98601.11;225669;1280;22690;-76
2023/08/31 19:42:07;;;;;;;7.10;6.50;;;;;;;14.24;83.54;98599.19;225814;1276;22574;-76
2023/08/31 19:47:10;;;;;;;9.30;8.20;;;;;;;14.17;84.02;98597.56;225800;1267;23016;-75
2023/08/31 19:52:16;;;;;;;9.60;8.50;;;;;;;14.08;84.09;98597.22;225758;1280;22579;-75
2023/08/31 19:57:24;;;;;;;11.30;9.50;;;;;;;13.98;84.45;98597.85;225809;1280;22547;-75
2023/08/31 20:02:26;;;;;;;10.20;9.10;;;;;;;13.88;84.78;98603.92;225840;1280;22552;-77
2023/08/31 20:07:28;;;;;;;10.30;8.70;;;;;;;13.78;84.67;98605.85;225682;1277;22532;-76
2023/08/31 20:12:30;;;;;;;10.70;9.60;;;;;;;13.67;84.79;98606.85;225789;1276;22541;-75
2023/08/31 20:17:32;;;;;;;11.40;9.80;;;;;;;13.56;84.83;98612.95;225858;1277;22600;-76
2023/08/31 20:22:34;;;;;;;9.80;8.80;;;;;;;13.46;84.99;98619.73;225807;1276;22545;-76
2023/08/31 20:27:37;;;;;;;11.10;8.90;;;;;;;13.36;85.01;98620.91;225825;1281;22563;-75
2023/08/31 20:32:40;;;;;;;10.50;9.10;;;;;;;13.25;85.36;98622.00;225867;1279;22562;-75
2023/08/31 20:37:41;;;;;;;10.20;9.10;;;;;;;13.16;85.48;98625.26;225860;1280;22544;-75
2023/08/31 20:42:45;;;;;;;10.40;8.90;;;;;;;13.07;85.52;98630.92;225815;1278;22960;-76
2023/08/31 20:47:47;;;;;;;12.30;9.00;;;;;;;13.01;85.69;98634.86;225801;1276;23602;-76
2023/08/31 20:52:51;;;;;;;10.20;8.60;;;;;;;12.97;85.64;98637.10;225847;1274;22562;-76
2023/08/31 20:57:54;;;;;;;10.90;8.70;;;;;;;12.97;85.86;98638.38;225854;1280;22619;-76
2023/08/31 21:02:56;;;;;;;10.90;8.50;;;;;;;12.98;85.74;98646.32;225763;1280;22529;-76
2023/08/31 21:07:58;;;;;;;9.80;8.80;;;;;;;13.00;85.64;98647.71;225810;1280;22590;-76
2023/08/31 21:13:01;;;;;;;10.40;8.80;;;;;;;12.99;85.58;98652.65;225848;1280;25275;-76
2023/08/31 21:18:05;;;;;;;12.40;9.10;;;;;;;12.94;85.69;98656.77;225820;1278;22573;-76
2023/08/31 21:23:11;;;;;;;10.80;8.80;;;;;;;12.88;85.64;98662.70;225793;1272;22551;-76
2023/08/31 21:28:13;;;;;;;11.70;8.70;;;;;;;12.81;85.67;98667.10;225830;1276;25345;-76
2023/08/31 21:33:15;;;;;;;12.80;8.80;;;;;;;12.71;85.69;98671.52;225825;1273;23016;-75
2023/08/31 21:38:18;;;;;;;10.10;8.60;;;;;;;12.61;85.73;98670.13;225910;1276;22573;-75
2023/08/31 21:43:20;;;;;;;11.20;9.00;;;;;;;12.52;85.73;98678.52;225858;1275;22611;-76
2023/08/31 21:48:22;;;;;;;11.50;9.90;;;;;;;12.44;85.60;98678.89;225793;1280;22547;-75
2023/08/31 21:53:24;;;;;;;12.00;10.00;;;;;;;12.37;85.92;98688.16;225787;1279;22582;-76
2023/08/31 21:58:26;;;;;;;14.90;10.60;;;;;;;12.29;85.98;98694.11;225768;1278;22755;-75
2023/08/31 22:03:29;;;;;;;10.80;9.50;;;;;;;12.22;86.02;98702.80;225799;1276;22559;-77
2023/08/31 22:08:31;;;;;;;11.80;9.70;;;;;;;12.15;85.87;98707.41;225822;1275;22548;-75
2023/08/31 22:13:36;;;;;;;12.60;9.00;;;;;;;12.10;85.93;98716.59;225769;1278;22636;-75
2023/08/31 22:18:38;;;;;;;12.80;9.30;;;;;;;12.06;86.00;98715.34;225831;1277;22562;-75
2023/08/31 22:23:40;;;;;;;10.60;9.00;;;;;;;12.03;86.05;98715.26;225859;1277;22559;-75
2023/08/31 22:28:42;;;;;;;11.80;8.80;;;;;;;12.01;86.21;98721.49;225822;1278;22556;-75
2023/08/31 22:33:44;;;;;;;10.30;8.40;;;;;;;11.99;86.16;98724.34;225779;1276;22547;-76
2023/08/31 22:38:47;;;;;;;13.00;9.00;;;;;;;11.96;86.29;98723.35;225828;1274;22595;-75
2023/08/31 22:43:49;;;;;;;11.60;8.80;;;;;;;11.93;86.16;98722.67;225827;1280;25418;-75
2023/08/31 22:48:53;;;;;;;11.70;8.50;;;;;;;11.91;86.36;98727.52;225849;1275;22557;-76
2023/08/31 22:53:55;;;;;;;9.30;8.00;;;;;;;11.92;86.46;98725.96;225858;1275;22578;-75
2023/08/31 22:58:56;;;;;;;10.30;7.70;;;;;;;11.96;86.65;98724.36;225832;1278;25322;-76
2023/08/31 23:03:58;;;;;;;10.90;8.30;;;;;;;12.03;86.74;98720.11;225788;1278;25394;-75
2023/08/31 23:09:01;;;;;;;10.50;8.00;;;;;;;12.11;86.73;98722.83;225865;1280;23334;-75
2023/08/31 23:14:04;;;;;;;10.80;8.00;;;;;;;12.17;86.78;98724.02;225843;1276;22578;-75
2023/08/31 23:19:06;;;;;;;11.70;8.60;;;;;;;12.19;86.70;98721.66;225792;1280;22560;-76